首页
METAR-TAF:

METAR-TAF

机场 :

西雅圖-塔科馬國際機場

西雅圖 / 塔科马, 华盛顿, 美国

纬度: 47-26-41N, 经度: 122-18-49W, 海拔: 130米

当前天气观测

该预报发布于41分钟前的20:53 UTC
风速7节,风向西南
温度 12°C
湿度 71%
气压 1026 hPa
能見度: 16.1公里
少量云层高于2600英尺
多云层高于8000英尺
阴天层高于20000英尺

METAR: KSEA 152053Z 23007KT 10SM FEW026 BKN080 OVC200 12/07 A3029 RMK AO2 SLP265 T01220072 58014

时间: 13:34 (21:34 UTC)

预报

该预报发布于25分钟前的21:09 UTC
预报有效从15日的 21点(UTC)到 16日的 24点(UTC)
风速7节,风向西南
能見度: 10公里
少量云层高于2500英尺
多云层高于8000英尺
阴天层高于20000英尺
从 16日的 0500点(UTC)
风速6节,风向
能見度: 10公里
多云层高于2000英尺
阴天层高于5000英尺
附近有阵雨
从 16日的 1000点(UTC)
风速9节,风向
能見度: 10公里
阴天层高于1500英尺
小雨
从 16日的 1800点(UTC)
风速4节,风向多变
能見度: 10公里
阴天层高于1200英尺
从 16日的 2000点(UTC)
风速5节,风向北转西北
能見度: 10公里
多云层高于2500英尺

TAF: KSEA 152109Z 1521/1624 22007KT P6SM FEW025 BKN080 OVC200 FM160500 17006KT P6SM VCSH BKN020 OVC050 FM161000 18009KT P6SM -RA OVC015 FM161800 VRB04KT P6SM OVC012 FM162000 34005KT P6SM BKN025

超过4000个机场的气象观测和天气预报(METAR&TAF报告)。

可查询的气象台以黄色和红色小点在地图上表示。

将鼠标移到小点上方,可查看气象台名称。

然后点击查看天气观测和预报。

如需切换地图:点击带黑十字的绿色按钮放大地图;点击带横线的绿色按钮缩小地图;或者点击绿色箭头查看邻近地区的地图。


METAR-TAF: